createdAt,value
2019-03-27T00:01:46.390Z,15.53
2019-03-27T00:04:18.874Z,14.67
2019-03-27T00:06:49.743Z,14.43
2019-03-27T00:09:20.698Z,14.50
2019-03-27T00:11:51.895Z,15.30
2019-03-27T00:14:22.866Z,14.00
2019-03-27T00:16:53.854Z,13.57
2019-03-27T00:19:24.745Z,14.87
2019-03-27T00:21:55.787Z,14.93
2019-03-27T00:24:27.032Z,15.13
2019-03-27T00:26:58.075Z,15.63
2019-03-27T00:29:29.059Z,17.03
2019-03-27T00:32:00.056Z,17.70
2019-03-27T00:34:31.180Z,17.10
2019-03-27T00:37:02.159Z,16.47
2019-03-27T00:39:36.045Z,14.13
2019-03-27T00:42:07.103Z,15.20
2019-03-27T00:44:37.990Z,15.37
2019-03-27T00:47:08.970Z,14.90
2019-03-27T00:49:41.499Z,16.30
2019-03-27T00:52:12.482Z,16.43
2019-03-27T00:54:43.431Z,18.30
2019-03-27T00:57:14.432Z,17.23
2019-03-27T00:59:45.707Z,17.10
2019-03-27T01:02:16.749Z,15.27
2019-03-27T01:04:47.758Z,15.27
2019-03-27T01:07:18.699Z,13.93
2019-03-27T01:09:49.668Z,14.37
2019-03-27T01:12:20.608Z,13.47
2019-03-27T01:14:51.547Z,14.57
2019-03-27T01:17:22.691Z,14.30
2019-03-27T01:19:53.937Z,15.77
2019-03-27T01:22:24.884Z,16.00
2019-03-27T01:24:56.019Z,15.73
2019-03-27T01:27:26.971Z,14.80
2019-03-27T01:29:57.961Z,15.43
2019-03-27T01:32:29.030Z,14.40
2019-03-27T01:34:59.978Z,14.47
2019-03-27T01:37:30.966Z,11.93
2019-03-27T01:40:01.961Z,13.50
2019-03-27T01:42:33.105Z,13.03
2019-03-27T01:45:04.218Z,12.30
2019-03-27T01:47:35.194Z,14.03
2019-03-27T01:50:06.768Z,14.97
2019-03-27T01:52:38.014Z,12.67
2019-03-27T01:55:09.242Z,11.37
2019-03-27T01:57:40.273Z,11.10
2019-03-27T02:00:11.417Z,11.63
2019-03-27T02:02:43.498Z,13.17
2019-03-27T02:05:14.728Z,14.73
2019-03-27T02:07:45.667Z,17.07
2019-03-27T02:10:16.801Z,15.83
2019-03-27T02:12:48.848Z,17.33
2019-03-27T02:15:19.934Z,16.57
2019-03-27T02:17:50.907Z,17.47
2019-03-27T02:20:21.941Z,17.33
2019-03-27T02:22:52.951Z,18.23
2019-03-27T02:25:25.398Z,19.17
2019-03-27T02:27:56.353Z,17.73
2019-03-27T02:30:27.603Z,19.13
2019-03-27T02:32:59.823Z,17.37
2019-03-27T02:35:30.818Z,17.73
2019-03-27T02:38:01.749Z,16.50
2019-03-27T02:40:32.660Z,17.90
2019-03-27T02:43:03.733Z,18.33
2019-03-27T02:45:34.744Z,14.97
2019-03-27T02:48:05.918Z,16.63
2019-03-27T02:50:37.162Z,17.50
2019-03-27T02:53:08.185Z,17.83
2019-03-27T02:55:39.041Z,16.47
2019-03-27T02:58:09.983Z,16.73
2019-03-27T03:00:41.023Z,16.43
2019-03-27T03:03:12.031Z,17.07
2019-03-27T03:05:43.157Z,17.73
2019-03-27T03:08:14.143Z,20.03
2019-03-27T03:10:45.876Z,18.93
2019-03-27T03:13:17.140Z,19.00
2019-03-27T03:15:48.272Z,16.97
2019-03-27T03:18:19.180Z,16.60
2019-03-27T03:20:50.227Z,17.63
2019-03-27T03:23:21.281Z,17.93
2019-03-27T03:25:52.457Z,18.70
2019-03-27T03:28:23.607Z,17.23
2019-03-27T03:30:54.713Z,17.30
2019-03-27T03:33:25.726Z,16.43
2019-03-27T03:35:56.983Z,16.37
2019-03-27T03:38:28.046Z,16.67
2019-03-27T03:40:59.318Z,19.80
2019-03-27T03:43:31.841Z,18.07
2019-03-27T03:46:02.821Z,17.13
2019-03-27T03:48:33.776Z,16.03
2019-03-27T03:51:05.920Z,15.50
2019-03-27T03:53:37.197Z,14.27
2019-03-27T03:56:09.122Z,16.90
2019-03-27T03:58:41.572Z,15.03
2019-03-27T04:01:13.096Z,15.57
2019-03-27T04:03:45.454Z,16.20
2019-03-27T04:06:16.479Z,16.10
2019-03-27T04:08:47.402Z,16.20
2019-03-27T04:11:18.369Z,17.97
2019-03-27T04:13:49.309Z,16.47
2019-03-27T04:16:20.352Z,15.80
2019-03-27T04:18:51.368Z,16.83
2019-03-27T04:21:26.698Z,17.03
2019-03-27T04:23:55.338Z,18.70
2019-03-27T04:26:26.578Z,17.47
2019-03-27T04:28:57.490Z,14.80
2019-03-27T04:31:28.551Z,17.93
2019-03-27T04:33:59.481Z,16.07
2019-03-27T04:36:30.543Z,15.40
2019-03-27T04:39:01.769Z,16.00
2019-03-27T04:41:33.836Z,17.57
2019-03-27T04:44:05.086Z,17.90
2019-03-27T04:46:36.020Z,17.53
2019-03-27T04:49:07.786Z,18.03
2019-03-27T04:51:39.086Z,17.03
2019-03-27T04:54:09.963Z,17.50
2019-03-27T04:56:40.904Z,17.93
2019-03-27T04:59:12.047Z,17.87
2019-03-27T05:01:43.020Z,15.90
2019-03-27T05:04:14.196Z,18.00
2019-03-27T05:06:45.070Z,17.03
2019-03-27T05:09:16.155Z,16.97
2019-03-27T05:11:47.254Z,16.70
2019-03-27T05:14:18.285Z,16.37
2019-03-27T05:16:49.541Z,16.40
2019-03-27T05:19:20.639Z,15.70
2019-03-27T05:21:51.778Z,16.60
2019-03-27T05:24:22.665Z,16.20
2019-03-27T05:26:53.710Z,14.23
2019-03-27T05:29:24.711Z,15.23
2019-03-27T05:31:55.891Z,16.47
2019-03-27T05:34:27.039Z,17.83
2019-03-27T05:36:57.986Z,18.10
2019-03-27T05:39:29.162Z,18.03
2019-03-27T05:42:00.159Z,16.83
2019-03-27T05:44:31.086Z,16.13
2019-03-27T05:47:02.042Z,17.27
2019-03-27T05:49:32.977Z,17.43
2019-03-27T05:52:03.963Z,17.03
2019-03-27T05:54:34.946Z,15.63
2019-03-27T05:57:05.886Z,16.27
2019-03-27T05:59:36.905Z,16.20
2019-03-27T06:02:07.878Z,15.47
2019-03-27T06:04:38.893Z,16.17
2019-03-27T06:07:09.872Z,17.10
2019-03-27T06:09:40.810Z,15.30
2019-03-27T06:12:11.947Z,16.33
2019-03-27T06:14:42.878Z,16.57
2019-03-27T06:17:13.818Z,17.33
2019-03-27T06:19:44.903Z,15.87
2019-03-27T06:22:16.207Z,16.67
2019-03-27T06:24:47.153Z,16.97
2019-03-27T06:27:18.192Z,17.20
2019-03-27T06:29:49.128Z,17.90
2019-03-27T06:32:20.068Z,17.27
2019-03-27T06:34:51.079Z,18.80
2019-03-27T06:37:22.047Z,19.43
2019-03-27T06:39:53.007Z,20.83
2019-03-27T06:42:24.134Z,21.47
2019-03-27T06:44:55.172Z,18.83
2019-03-27T06:47:26.217Z,22.20
2019-03-27T06:49:57.398Z,19.43
2019-03-27T06:52:28.312Z,17.70
2019-03-27T06:54:59.338Z,17.03
2019-03-27T06:57:30.483Z,16.23
2019-03-27T07:00:01.532Z,15.17
2019-03-27T07:02:33.485Z,15.03
2019-03-27T07:05:04.537Z,16.27
2019-03-27T07:07:35.691Z,16.87
2019-03-27T07:10:07.221Z,12.87
2019-03-27T07:12:38.342Z,14.47
2019-03-27T07:15:10.026Z,13.93
2019-03-27T07:17:41.043Z,11.93
2019-03-27T07:20:12.077Z,12.60
2019-03-27T07:22:43.197Z,10.70
2019-03-27T07:25:14.294Z,9.37
2019-03-27T07:27:45.308Z,8.70
2019-03-27T07:30:16.476Z,8.60
2019-03-27T07:32:48.571Z,10.10
2019-03-27T07:35:19.610Z,10.00
2019-03-27T07:37:50.528Z,10.33
2019-03-27T07:40:21.767Z,9.30
2019-03-27T07:42:52.723Z,8.80
2019-03-27T07:45:23.851Z,9.07
2019-03-27T07:47:54.862Z,7.50
2019-03-27T07:50:26.140Z,7.93
2019-03-27T07:52:57.092Z,7.43
2019-03-27T07:55:28.086Z,7.13
2019-03-27T07:57:59.159Z,7.50
2019-03-27T08:00:30.202Z,7.17
2019-03-27T08:03:01.140Z,7.33
2019-03-27T08:05:32.286Z,7.10
2019-03-27T08:08:03.734Z,6.67
2019-03-27T08:10:34.843Z,6.40
2019-03-27T08:13:07.170Z,6.20
2019-03-27T08:15:40.802Z,6.28
2019-03-27T08:18:11.834Z,6.60
2019-03-27T08:20:42.775Z,5.87
2019-03-27T08:23:13.889Z,6.70
2019-03-27T08:25:44.813Z,6.05
2019-03-27T08:28:15.752Z,8.20
2019-03-27T08:30:46.734Z,7.45
2019-03-27T08:33:17.734Z,7.10
2019-03-27T08:35:48.744Z,7.75
2019-03-27T08:38:19.723Z,7.15
2019-03-27T08:40:50.859Z,5.72
2019-03-27T08:43:25.369Z,5.75
2019-03-27T08:45:54.684Z,8.78
2019-03-27T08:48:25.619Z,7.58
2019-03-27T08:50:56.732Z,7.22
2019-03-27T08:53:27.702Z,8.68
2019-03-27T08:55:58.645Z,8.43
2019-03-27T08:58:29.683Z,6.75
2019-03-27T09:01:00.686Z,7.35
2019-03-27T09:03:31.971Z,7.70
2019-03-27T09:06:02.918Z,6.58
2019-03-27T09:08:34.119Z,6.85
2019-03-27T09:11:05.202Z,6.92
2019-03-27T09:13:37.271Z,6.83
2019-03-27T09:16:08.200Z,7.45
2019-03-27T09:18:39.243Z,6.75
2019-03-27T09:21:10.398Z,7.53
2019-03-27T09:23:53.374Z,7.42
2019-03-27T09:26:24.412Z,6.00
2019-03-27T09:28:55.285Z,6.97
2019-03-27T09:31:26.126Z,7.05
2019-03-27T09:33:57.358Z,7.10
2019-03-27T09:36:28.315Z,6.40
2019-03-27T09:39:02.423Z,7.30
2019-03-27T09:41:33.537Z,7.20
2019-03-27T09:44:04.607Z,7.25
2019-03-27T09:46:35.551Z,7.05
2019-03-27T09:49:06.474Z,6.60
2019-03-27T09:51:37.570Z,6.85
2019-03-27T09:54:08.672Z,7.45
2019-03-27T09:56:39.814Z,7.10
2019-03-27T09:59:10.758Z,6.05
2019-03-27T10:01:42.718Z,6.08
2019-03-27T10:04:15.602Z,5.67
2019-03-27T10:06:46.540Z,6.10
2019-03-27T10:09:17.579Z,6.80
2019-03-27T10:11:49.610Z,5.90
2019-03-27T10:14:20.646Z,6.22
2019-03-27T10:16:51.831Z,5.83
2019-03-27T10:19:23.038Z,6.72
2019-03-27T10:22:00.087Z,5.67
2019-03-27T10:24:37.803Z,5.55
2019-03-27T10:27:08.847Z,5.58
2019-03-27T10:29:39.633Z,5.50
2019-03-27T10:32:10.801Z,4.83
2019-03-27T10:34:41.716Z,5.58
2019-03-27T10:37:12.653Z,5.03
2019-03-27T10:39:43.593Z,4.22
2019-03-27T10:42:14.749Z,4.17
2019-03-27T10:45:15.335Z,3.65
2019-03-27T10:47:46.210Z,3.95
2019-03-27T10:50:18.196Z,4.00
2019-03-27T10:52:49.464Z,4.10
2019-03-27T10:55:20.424Z,3.40
2019-03-27T10:57:51.491Z,3.60
2019-03-27T11:00:22.807Z,3.92
2019-03-27T11:02:53.892Z,3.95
2019-03-27T11:05:24.970Z,3.47
2019-03-27T11:07:55.876Z,4.45
2019-03-27T11:10:26.811Z,3.90
2019-03-27T11:12:57.749Z,4.45
2019-03-27T11:15:28.755Z,3.80
2019-03-27T11:18:00.083Z,3.02
2019-03-27T11:20:33.434Z,3.35
2019-03-27T11:23:04.500Z,3.40
2019-03-27T11:25:35.763Z,2.80
2019-03-27T11:28:06.974Z,2.95
2019-03-27T11:30:40.228Z,3.55
2019-03-27T11:33:11.410Z,2.90
2019-03-27T11:35:42.548Z,3.33
2019-03-27T11:38:13.900Z,3.77
2019-03-27T11:40:45.041Z,3.02
2019-03-27T11:43:16.390Z,3.30
2019-03-27T11:45:48.814Z,3.50
2019-03-27T11:48:20.388Z,3.55
2019-03-27T11:50:51.358Z,4.08
2019-03-27T11:53:37.759Z,3.60
2019-03-27T11:56:26.874Z,3.87
2019-03-27T11:58:57.941Z,3.47
2019-03-27T12:01:39.151Z,3.42
2019-03-27T12:04:01.699Z,3.33
2019-03-27T12:06:32.848Z,3.55
2019-03-27T12:09:05.526Z,3.52
2019-03-27T12:11:37.784Z,3.52
2019-03-27T12:14:12.069Z,3.72
2019-03-27T12:16:43.015Z,2.95
2019-03-27T12:19:14.327Z,3.37
2019-03-27T12:21:45.438Z,3.72
2019-03-27T12:24:16.845Z,3.47
2019-03-27T12:26:48.263Z,3.85
2019-03-27T12:29:19.329Z,4.05
2019-03-27T12:31:51.348Z,4.10
2019-03-27T12:34:22.459Z,4.17
2019-03-27T12:36:53.595Z,4.35
2019-03-27T12:39:24.747Z,4.53
2019-03-27T12:41:55.806Z,4.33
2019-03-27T12:44:26.654Z,4.00
2019-03-27T12:46:57.589Z,4.87
2019-03-27T12:49:28.591Z,4.20
2019-03-27T12:51:59.561Z,4.08
2019-03-27T12:54:30.503Z,4.17
2019-03-27T12:57:01.440Z,4.47
2019-03-27T12:59:32.448Z,5.17
2019-03-27T13:02:03.467Z,4.62
2019-03-27T13:04:38.530Z,4.47
2019-03-27T13:07:09.600Z,4.30
2019-03-27T13:09:40.541Z,4.60
2019-03-27T13:12:12.501Z,5.33
2019-03-27T13:14:44.862Z,5.12
2019-03-27T13:17:15.814Z,5.25
2019-03-27T13:19:46.818Z,5.53
2019-03-27T13:22:25.439Z,5.00
2019-03-27T13:24:57.644Z,5.95
2019-03-27T13:27:28.627Z,6.00
2019-03-27T13:29:59.675Z,4.95
2019-03-27T13:32:30.658Z,5.70
2019-03-27T13:35:01.662Z,5.20
2019-03-27T13:37:32.634Z,6.08
2019-03-27T13:40:03.583Z,4.92
2019-03-27T13:42:34.688Z,5.47
2019-03-27T13:45:06.242Z,5.85
2019-03-27T13:47:37.116Z,5.65
2019-03-27T13:50:12.770Z,6.28
2019-03-27T13:52:42.477Z,5.83
2019-03-27T13:55:13.722Z,7.12
2019-03-27T13:57:44.738Z,7.37
2019-03-27T14:00:18.664Z,8.03
2019-03-27T14:02:50.783Z,8.70
2019-03-27T14:05:23.090Z,9.18
2019-03-27T14:07:54.039Z,10.53
2019-03-27T14:10:24.992Z,10.03
2019-03-27T14:12:57.974Z,10.25
2019-03-27T14:15:28.916Z,10.58
2019-03-27T14:18:01.490Z,10.72
2019-03-27T14:20:32.500Z,11.50
2019-03-27T14:23:03.483Z,11.05
2019-03-27T14:25:34.504Z,10.63
2019-03-27T14:28:05.808Z,10.50
2019-03-27T14:30:59.521Z,10.32
2019-03-27T14:33:30.546Z,9.70
2019-03-27T14:36:01.615Z,9.93
2019-03-27T14:38:33.991Z,10.03
2019-03-27T14:41:05.304Z,9.65
2019-03-27T14:43:36.277Z,9.25
2019-03-27T14:46:07.418Z,7.85
2019-03-27T14:48:38.431Z,8.53
2019-03-27T14:51:10.431Z,8.38
2019-03-27T14:53:47.118Z,7.15
2019-03-27T14:56:19.564Z,5.85
2019-03-27T14:58:50.502Z,5.60
2019-03-27T15:01:22.681Z,5.62
2019-03-27T15:03:53.739Z,5.33
2019-03-27T15:06:27.628Z,5.78
2019-03-27T15:08:58.631Z,5.40
2019-03-27T15:11:29.611Z,4.55
2019-03-27T15:14:00.752Z,4.42
2019-03-27T15:16:31.759Z,3.83
2019-03-27T15:19:02.617Z,3.25
2019-03-27T15:21:33.569Z,3.58
2019-03-27T15:24:04.498Z,2.92
2019-03-27T15:26:35.442Z,2.72
2019-03-27T15:29:06.454Z,2.85
2019-03-27T15:31:37.942Z,2.60
2019-03-27T15:34:08.990Z,2.20
2019-03-27T15:36:39.910Z,1.92
2019-03-27T15:39:10.859Z,2.15
2019-03-27T15:41:42.810Z,1.90
2019-03-27T15:44:13.759Z,2.20
2019-03-27T15:46:44.701Z,1.90
2019-03-27T15:49:15.640Z,1.80
2019-03-27T15:51:46.640Z,2.80
2019-03-27T15:54:17.506Z,1.67
2019-03-27T15:56:48.445Z,1.82
2019-03-27T15:59:19.395Z,1.90
2019-03-27T16:01:50.322Z,1.62
2019-03-27T16:04:21.374Z,1.50
2019-03-27T16:06:52.356Z,1.60
2019-03-27T16:09:23.367Z,2.37
2019-03-27T16:11:55.307Z,1.90
2019-03-27T16:14:26.246Z,2.27
2019-03-27T16:17:12.357Z,2.75
2019-03-27T16:19:30.899Z,2.65
2019-03-27T16:22:03.068Z,1.90
2019-03-27T16:24:35.439Z,2.30
2019-03-27T16:27:06.483Z,1.95
2019-03-27T16:29:37.462Z,1.70
2019-03-27T16:32:08.823Z,2.55
2019-03-27T16:34:39.774Z,2.25
2019-03-27T16:37:10.702Z,2.35
2019-03-27T16:39:41.587Z,2.27
2019-03-27T16:42:12.628Z,2.05
2019-03-27T16:44:43.555Z,2.52
2019-03-27T16:47:14.680Z,1.90
2019-03-27T16:49:45.649Z,2.33
2019-03-27T16:52:16.795Z,2.35
2019-03-27T16:54:47.797Z,2.20
2019-03-27T16:57:19.033Z,1.85
2019-03-27T16:59:51.350Z,1.77
2019-03-27T17:02:23.726Z,1.82
2019-03-27T17:04:54.727Z,2.00
2019-03-27T17:07:27.217Z,2.35
2019-03-27T17:09:58.224Z,2.30
2019-03-27T17:12:31.461Z,2.33
2019-03-27T17:15:01.869Z,2.02
2019-03-27T17:17:34.240Z,2.50
2019-03-27T17:20:05.722Z,2.43
2019-03-27T17:22:37.676Z,2.40
2019-03-27T17:25:09.139Z,2.23
2019-03-27T17:27:40.084Z,3.20
2019-03-27T17:30:11.655Z,2.73
2019-03-27T17:32:43.392Z,2.63
2019-03-27T17:35:14.326Z,2.40
2019-03-27T17:37:45.330Z,2.67
2019-03-27T17:40:16.615Z,2.97
2019-03-27T17:42:47.553Z,2.60
2019-03-27T17:45:21.962Z,2.47
2019-03-27T17:47:52.911Z,3.30
2019-03-27T17:50:24.058Z,3.17
2019-03-27T17:52:56.021Z,3.83
2019-03-27T17:55:26.946Z,3.70
2019-03-27T17:57:58.168Z,3.97
2019-03-27T18:00:45.896Z,3.90
2019-03-27T18:03:16.876Z,4.23
2019-03-27T18:05:47.819Z,4.70
2019-03-27T18:08:18.820Z,5.20
2019-03-27T18:10:49.750Z,4.10
2019-03-27T18:13:20.734Z,4.60
2019-03-27T18:15:52.903Z,4.77
2019-03-27T18:18:25.172Z,4.73
2019-03-27T18:20:56.182Z,5.30
2019-03-27T18:23:27.256Z,5.60
2019-03-27T18:25:58.316Z,5.37
2019-03-27T18:28:29.278Z,5.50
2019-03-27T18:31:00.320Z,5.60
2019-03-27T18:33:33.849Z,5.50
2019-03-27T18:36:03.839Z,5.90
2019-03-27T18:38:34.950Z,6.00
2019-03-27T18:41:05.931Z,5.80
2019-03-27T18:43:36.916Z,6.57
2019-03-27T18:46:07.845Z,6.53
2019-03-27T18:48:39.096Z,7.63
2019-03-27T18:51:10.042Z,7.33
2019-03-27T18:53:40.980Z,6.63
2019-03-27T18:56:11.920Z,7.27
2019-03-27T18:58:42.928Z,8.80
2019-03-27T19:01:15.318Z,9.43
2019-03-27T19:03:46.274Z,7.70
2019-03-27T19:06:17.209Z,7.57
2019-03-27T19:08:48.217Z,8.37
2019-03-27T19:11:20.805Z,8.90
2019-03-27T19:13:52.711Z,7.90
2019-03-27T19:16:23.619Z,8.63
2019-03-27T19:18:54.773Z,7.77
2019-03-27T19:21:25.886Z,8.97
2019-03-27T19:23:56.940Z,9.30
2019-03-27T19:26:27.899Z,8.63
2019-03-27T19:28:58.866Z,9.83
2019-03-27T19:31:29.984Z,8.30
2019-03-27T19:34:01.019Z,9.00
2019-03-27T19:36:32.050Z,10.50
2019-03-27T19:39:03.598Z,10.03
2019-03-27T19:41:34.682Z,9.70
2019-03-27T19:44:07.178Z,9.47
2019-03-27T19:46:38.142Z,10.37
2019-03-27T19:49:09.214Z,9.50
2019-03-27T19:51:41.209Z,10.90
2019-03-27T19:54:25.915Z,10.60
2019-03-27T19:56:46.166Z,10.17
2019-03-27T19:59:17.270Z,10.77
2019-03-27T20:01:49.521Z,11.53
2019-03-27T20:04:20.613Z,10.27
2019-03-27T20:06:51.703Z,8.87
2019-03-27T20:09:23.367Z,9.73
2019-03-27T20:11:54.955Z,10.30
2019-03-27T20:14:26.351Z,10.93
2019-03-27T20:16:58.349Z,11.97
2019-03-27T20:19:29.334Z,12.03
2019-03-27T20:22:00.331Z,10.97
2019-03-27T20:24:41.028Z,10.73
2019-03-27T20:27:04.258Z,10.83
2019-03-27T20:29:35.647Z,12.57
2019-03-27T20:32:06.896Z,11.80
2019-03-27T20:34:37.687Z,11.03
2019-03-27T20:37:08.840Z,13.00
2019-03-27T20:39:42.606Z,12.50
2019-03-27T20:42:15.614Z,12.47
2019-03-27T20:44:46.739Z,13.00
2019-03-27T20:47:19.143Z,11.60
2019-03-27T20:49:50.387Z,13.70
2019-03-27T20:52:21.500Z,13.63
2019-03-27T20:54:55.233Z,12.90
2019-03-27T20:57:27.131Z,13.03
2019-03-27T20:59:58.252Z,13.83
2019-03-27T21:02:29.395Z,13.87
2019-03-27T21:05:01.354Z,14.20
2019-03-27T21:07:32.404Z,13.87
2019-03-27T21:10:03.392Z,13.60
2019-03-27T21:12:34.368Z,14.17
2019-03-27T21:15:05.528Z,13.43
2019-03-27T21:17:36.495Z,13.67
2019-03-27T21:20:08.105Z,14.60
2019-03-27T21:22:39.148Z,11.73
2019-03-27T21:25:10.404Z,13.60
2019-03-27T21:27:41.333Z,13.07
2019-03-27T21:30:12.829Z,13.73
2019-03-27T21:32:43.970Z,14.50
2019-03-27T21:35:16.354Z,13.77
2019-03-27T21:37:48.674Z,12.30
2019-03-27T21:40:21.033Z,13.90
2019-03-27T21:42:52.057Z,13.17
2019-03-27T21:45:24.586Z,14.50
2019-03-27T21:47:56.606Z,13.87
2019-03-27T21:50:28.704Z,13.93
2019-03-27T21:53:01.104Z,13.90
2019-03-27T21:55:42.159Z,11.97
2019-03-27T21:58:05.067Z,12.47
2019-03-27T22:00:40.640Z,13.93
2019-03-27T22:03:11.681Z,12.37
2019-03-27T22:05:42.690Z,12.80
2019-03-27T22:08:13.762Z,12.83
2019-03-27T22:10:44.702Z,12.17
2019-03-27T22:13:15.630Z,11.43
2019-03-27T22:15:48.073Z,12.07
2019-03-27T22:18:19.036Z,11.97
2019-03-27T22:20:49.994Z,11.73
2019-03-27T22:23:22.059Z,12.60
2019-03-27T22:25:53.100Z,12.20
2019-03-27T22:28:24.043Z,11.90
2019-03-27T22:30:55.254Z,13.20
2019-03-27T22:33:26.370Z,12.30
2019-03-27T22:35:58.495Z,11.90
2019-03-27T22:38:41.198Z,12.23
2019-03-27T22:41:12.244Z,12.10
2019-03-27T22:43:54.431Z,12.13
2019-03-27T22:46:25.701Z,11.93
2019-03-27T22:48:57.683Z,12.33
2019-03-27T22:51:28.870Z,12.63
2019-03-27T22:54:00.075Z,12.87
2019-03-27T22:56:37.649Z,12.87
2019-03-27T22:59:08.751Z,14.57
2019-03-27T23:01:47.316Z,14.60
2019-03-27T23:04:18.867Z,15.10
2019-03-27T23:06:50.023Z,14.40
2019-03-27T23:09:21.168Z,13.63
2019-03-27T23:11:52.328Z,15.50
2019-03-27T23:14:23.438Z,13.80
2019-03-27T23:16:54.723Z,14.00
2019-03-27T23:19:26.135Z,14.83
2019-03-27T23:21:57.235Z,15.60
2019-03-27T23:24:28.278Z,16.23
2019-03-27T23:26:59.374Z,16.90
2019-03-27T23:29:30.444Z,14.63
2019-03-27T23:32:01.710Z,16.10
2019-03-27T23:34:32.970Z,15.23
2019-03-27T23:37:04.146Z,17.33
2019-03-27T23:39:35.306Z,16.73
2019-03-27T23:42:06.326Z,16.10
2019-03-27T23:44:37.265Z,15.40
2019-03-27T23:47:08.412Z,15.10
2019-03-27T23:49:39.419Z,16.17
2019-03-27T23:52:10.595Z,16.80
2019-03-27T23:54:41.635Z,16.13
2019-03-27T23:57:12.574Z,16.13
2019-03-27T23:59:43.607Z,16.27
